Meteo Giornale » Osservazioni meteo Gran Bretagna » Londra City AP

ore: 02:20 - Osservazioni Meteo Londra City AP
Lat. 51° 30' N Lon. 0° 30' W Alt. 5 metri s.l.m.

foschia Europe/London

4 °C

Foschia

Temp. 24 Ore

3 °C

10 °C

Est/Nord-Est

14.8 Km/h

Dew point 4 °C

Umidità 100 %

Visibilità  1 Km

Il sole sorge alle ore 06:44

Il sole tramonta alle ore 17:43

Data e Ora Cielo e Fenomeni T °C DP °C Um. % Pres. hPa Vis. km Vento km/h
Oggi h: 02:20 foschia Foschia 4 4 100 1034 1 E/NE 14.8
Oggi h: 01:50 foschia Foschia 5 4 93 1034 3 E/NE 14.8
Oggi h: 01:20 foschia Foschia 5 4 93 1034 3 E/NE 14.8
Oggi h: 00:50 foschia Foschia 4 4 100 1034 3 E/NE 14.8
Oggi h: 00:20 foschia Foschia 4 3 93 1035 4 E/NE 14.8
Ieri h: 23:50 coperto Coperto 5 3 86 1035 10 E 16.7
Ieri h: 23:20 molto_nuvoloso Molto Nuvoloso 4 3 93 1035 10 E 9.3
Ieri h: 22:50 sereno Sereno 5 3 86 1035 10 E/NE 14.8
Ieri h: 22:20 sereno Sereno 5 3 86 1034 10 E/NE 16.7
Ieri h: 21:50 sereno Sereno 6 3 81 1034 10 E/NE 20.3
Ieri h: 21:20 sereno Sereno 6 3 81 1034 10 E 18.5
Ieri h: 20:50 sereno Sereno 6 3 81 1034 10 E 16.7
Ieri h: 18:50 sereno Sereno 7 3 75 1035 10 E 20.3
Ieri h: 18:20 sereno Sereno 8 3 70 1035 10 E 18.5
Ieri h: 17:50 sereno Sereno 8 4 75 1035 10 E 16.7
Ieri h: 17:20 sereno Sereno 9 4 70 1035 10 E 18.5
Ieri h: 16:50 sereno Sereno 9 4 70 1035 10 E 20.3
Ieri h: 16:20 sereno Sereno 10 4 66 1035 10 E 18.5
Ieri h: 15:50 sereno Sereno 10 4 66 1035 10 E 20.3
Ieri h: 14:50 sereno Sereno 9 4 70 1036 10 E/NE 14.8
Ieri h: 14:20 nuvoloso Nuvoloso 8 4 75 1036 9 E/NE 14.8
Ieri h: 13:50 molto_nuvoloso Molto Nuvoloso 7 4 81 1037 8 E/NE 14.8
Ieri h: 13:20 coperto Coperto 7 4 81 1037 7 E 13
Ieri h: 12:50 molto_nuvoloso Molto Nuvoloso 6 4 86 1038 6 E/NE 13
Ieri h: 12:20 coperto Coperto 5 4 93 1038 6 E/NE 13
Ieri h: 11:50 foschia Foschia 5 4 93 1039 5 E 14.8
Ieri h: 11:20 foschia Foschia 5 4 93 1039 5 E 13
Ieri h: 10:50 foschia Foschia 5 4 93 1039 4 E/NE 11.1
Ieri h: 09:50 foschia Foschia 3 3 100 1039 2 E/NE 7.4
Ieri h: 09:20 foschia Foschia 3 3 100 1039 2 NE 9.3
Ieri h: 08:50 foschia Foschia 3 3 100 1039 1 NE 9.3
Ieri h: 08:20 nebbia Nebbia 3 3 100 1039 0.7 NE 11.1
Ieri h: 07:50 nebbia Nebbia 3 3 100 1039 0.8 NE 9.3
Ieri h: 07:20 nebbia Nebbia 3 3 100 1039 0.9 NE 7.4
Ieri h: 06:50 foschia Foschia 3 3 100 1039 1 NE 11.1
Ieri h: 06:20 foschia Foschia 4 3 93 1039 1 NE 11.1
Ieri h: 05:50 nebbia Nebbia 4 3 93 1039 0.5 NE 7.4
Ieri h: 05:20 nebbia Nebbia 4 4 100 1039 0.6 NE 7.4
Ieri h: 04:50 foschia Foschia 4 4 100 1039 1 NE 9.3
Ieri h: 04:20 foschia Foschia 5 4 93 1039 2 E/NE 9.3
Ieri h: 03:50 foschia Foschia 5 4 93 1039 1 E 11.1
Ieri h: 03:20 nebbia Nebbia 4 4 100 1039 0.9 E 13
Ieri h: 02:50 foschia Foschia 5 4 93 1039 5 E/NE 11.1